createdAt,value
2022-11-20T00:00:21.347Z,90.37
2022-11-20T00:01:21.347Z,90.37
2022-11-20T00:02:21.410Z,90.16
2022-11-20T00:03:21.297Z,90.16
2022-11-20T00:04:21.288Z,90.06
2022-11-20T00:05:21.278Z,90.06
2022-11-20T00:06:21.287Z,89.95
2022-11-20T00:07:21.345Z,89.95
2022-11-20T00:08:21.240Z,89.92
2022-11-20T00:09:21.422Z,89.92
2022-11-20T00:10:21.208Z,90.02
2022-11-20T00:11:21.209Z,90.23
2022-11-20T00:12:21.187Z,90.44
2022-11-20T00:13:21.170Z,90.64
2022-11-20T00:14:21.157Z,90.75
2022-11-20T00:15:21.139Z,90.85
2022-11-20T00:16:21.149Z,90.85
2022-11-20T00:17:21.120Z,90.75
2022-11-20T00:18:21.106Z,90.64
2022-11-20T00:19:21.300Z,90.64
2022-11-20T00:20:21.088Z,90.54
2022-11-20T00:21:22.182Z,90.44
2022-11-20T00:22:21.058Z,90.44
2022-11-20T00:23:21.043Z,90.33
2022-11-20T00:24:21.026Z,90.44
2022-11-20T00:25:21.015Z,90.44
2022-11-20T00:26:21.000Z,90.54
2022-11-20T00:27:21.008Z,90.64
2022-11-20T00:28:20.977Z,90.64
2022-11-20T00:29:21.216Z,90.54
2022-11-20T00:30:20.950Z,90.44
2022-11-20T00:31:20.933Z,90.44
2022-11-20T00:32:21.151Z,90.44
2022-11-20T00:33:20.898Z,90.54
2022-11-20T00:34:20.907Z,90.64
2022-11-20T00:35:20.878Z,90.75
2022-11-20T00:36:20.869Z,90.85
2022-11-20T00:37:20.866Z,90.85
2022-11-20T00:38:20.840Z,90.95
2022-11-20T00:39:20.971Z,91.06
2022-11-20T00:40:20.828Z,91.27
2022-11-20T00:41:20.798Z,91.16
2022-11-20T00:42:20.809Z,91.27
2022-11-20T00:43:20.770Z,91.16
2022-11-20T00:44:20.768Z,91.27
2022-11-20T00:45:20.750Z,91.27
2022-11-20T00:46:20.755Z,91.37
2022-11-20T00:47:20.718Z,91.37
2022-11-20T00:48:20.716Z,91.37
2022-11-20T00:49:20.981Z,91.52
2022-11-20T00:50:20.705Z,91.62
2022-11-20T00:51:20.686Z,91.62
2022-11-20T00:52:20.660Z,91.62
2022-11-20T00:53:20.641Z,91.72
2022-11-20T00:54:20.633Z,91.72
2022-11-20T00:55:20.620Z,91.72
2022-11-20T00:56:20.628Z,91.83
2022-11-20T00:57:20.595Z,91.83
2022-11-20T00:58:20.590Z,91.83
2022-11-20T00:59:20.654Z,91.83
2022-11-20T01:00:20.550Z,91.72
2022-11-20T01:01:20.587Z,91.62
2022-11-20T01:02:20.540Z,91.62
2022-11-20T01:03:25.564Z,91.62
2022-11-20T01:04:21.503Z,91.62
2022-11-20T01:05:20.489Z,91.52
2022-11-20T01:06:20.491Z,91.52
2022-11-20T01:07:20.479Z,91.52
2022-11-20T01:08:20.449Z,91.52
2022-11-20T01:09:20.940Z,91.62
2022-11-20T01:10:20.423Z,91.72
2022-11-20T01:11:20.427Z,91.83
2022-11-20T01:12:20.401Z,91.72
2022-11-20T01:13:25.473Z,91.72
2022-11-20T01:14:21.382Z,91.62
2022-11-20T01:15:20.350Z,91.62
2022-11-20T01:16:20.361Z,91.52
2022-11-20T01:17:20.331Z,91.41
2022-11-20T01:18:20.318Z,91.52
2022-11-20T01:19:20.649Z,91.52
2022-11-20T01:20:20.290Z,91.41
2022-11-20T01:21:20.301Z,91.56
2022-11-20T01:22:20.275Z,91.77
2022-11-20T01:23:20.257Z,91.97
2022-11-20T01:24:20.243Z,92.03
2022-11-20T01:25:20.229Z,92.03
2022-11-20T01:26:20.232Z,92.14
2022-11-20T01:27:20.192Z,92.14
2022-11-20T01:28:20.191Z,92.14
2022-11-20T01:29:20.468Z,92.14
2022-11-20T01:30:20.164Z,92.14
2022-11-20T01:31:20.159Z,92.14
2022-11-20T01:32:20.140Z,92.14
2022-11-20T01:33:20.111Z,92.14
2022-11-20T01:34:20.121Z,92.14
2022-11-20T01:35:20.090Z,92.03
2022-11-20T01:36:20.100Z,91.93
2022-11-20T01:37:20.078Z,91.83
2022-11-20T01:38:20.060Z,91.83
2022-11-20T01:39:20.384Z,91.72
2022-11-20T01:40:20.039Z,91.68
2022-11-20T01:41:20.038Z,91.68
2022-11-20T01:42:20.013Z,91.78
2022-11-20T01:43:19.994Z,91.78
2022-11-20T01:44:19.982Z,91.89
2022-11-20T01:45:19.958Z,91.99
2022-11-20T01:46:19.951Z,92.10
2022-11-20T01:47:19.970Z,92.20
2022-11-20T01:48:19.935Z,92.30
2022-11-20T01:49:20.216Z,92.30
2022-11-20T01:50:19.901Z,92.30
2022-11-20T01:51:19.883Z,92.30
2022-11-20T01:52:19.900Z,92.30
2022-11-20T01:53:19.860Z,92.20
2022-11-20T01:54:19.858Z,92.30
2022-11-20T01:55:19.831Z,92.30
2022-11-20T01:56:19.840Z,92.41
2022-11-20T01:57:19.805Z,92.41
2022-11-20T01:58:19.803Z,92.51
2022-11-20T01:59:20.048Z,92.51
2022-11-20T02:00:19.766Z,92.51
2022-11-20T02:01:19.832Z,92.41
2022-11-20T02:02:19.743Z,92.30
2022-11-20T02:03:19.732Z,92.30
2022-11-20T02:04:19.714Z,92.20
2022-11-20T02:05:19.692Z,92.10
2022-11-20T02:06:19.714Z,92.10
2022-11-20T02:07:19.721Z,91.99
2022-11-20T02:08:19.672Z,92.10
2022-11-20T02:09:19.957Z,92.20
2022-11-20T02:10:19.642Z,92.30
2022-11-20T02:11:19.634Z,92.41
2022-11-20T02:12:19.612Z,92.41
2022-11-20T02:13:19.591Z,92.51
2022-11-20T02:14:19.595Z,92.51
2022-11-20T02:15:19.574Z,92.61
2022-11-20T02:16:19.577Z,92.72
2022-11-20T02:17:19.543Z,92.82
2022-11-20T02:18:19.543Z,92.93
2022-11-20T02:19:19.771Z,93.03
2022-11-20T02:20:19.515Z,93.14
2022-11-20T02:21:19.503Z,93.14
2022-11-20T02:22:19.480Z,93.24
2022-11-20T02:23:19.464Z,93.24
2022-11-20T02:24:19.467Z,93.35
2022-11-20T02:25:19.440Z,93.35
2022-11-20T02:26:19.442Z,93.45
2022-11-20T02:27:19.414Z,93.55
2022-11-20T02:28:19.421Z,93.76
2022-11-20T02:29:19.738Z,93.87
2022-11-20T02:30:19.380Z,93.97
2022-11-20T02:31:19.383Z,94.18
2022-11-20T02:32:19.352Z,94.18
2022-11-20T02:33:19.347Z,94.28
2022-11-20T02:34:19.324Z,94.18
2022-11-20T02:35:19.303Z,94.18
2022-11-20T02:36:19.306Z,94.18
2022-11-20T02:37:19.306Z,94.18
2022-11-20T02:38:19.274Z,94.18
2022-11-20T02:39:19.480Z,94.18
2022-11-20T02:40:19.245Z,94.18
2022-11-20T02:41:19.236Z,94.18
2022-11-20T02:42:19.235Z,94.24
2022-11-20T02:43:19.202Z,94.24
2022-11-20T02:44:19.193Z,94.24
2022-11-20T02:45:19.173Z,94.24
2022-11-20T02:46:19.173Z,94.24
2022-11-20T02:47:19.171Z,94.34
2022-11-20T02:48:19.151Z,94.34
2022-11-20T02:49:19.500Z,94.24
2022-11-20T02:50:19.120Z,94.24
2022-11-20T02:51:19.103Z,94.13
2022-11-20T02:52:19.103Z,94.03
2022-11-20T02:53:19.075Z,93.93
2022-11-20T02:54:19.063Z,93.82
2022-11-20T02:55:19.044Z,93.82
2022-11-20T02:56:19.035Z,93.72
2022-11-20T02:57:19.038Z,93.72
2022-11-20T02:58:19.014Z,93.72
2022-11-20T02:59:19.207Z,93.82
2022-11-20T03:00:18.995Z,93.82
2022-11-20T03:01:19.024Z,93.82
2022-11-20T03:02:26.722Z,93.82
2022-11-20T03:03:18.944Z,93.82
2022-11-20T03:04:18.931Z,93.97
2022-11-20T03:05:18.912Z,93.87
2022-11-20T03:06:18.911Z,93.76
2022-11-20T03:07:18.929Z,93.76
2022-11-20T03:08:18.881Z,93.76
2022-11-20T03:09:19.111Z,93.87
2022-11-20T03:10:18.851Z,93.97
2022-11-20T03:11:18.839Z,94.07
2022-11-20T03:12:18.848Z,94.12
2022-11-20T03:13:18.812Z,94.22
2022-11-20T03:14:18.804Z,94.32
2022-11-20T03:15:18.782Z,94.32
2022-11-20T03:16:18.774Z,94.43
2022-11-20T03:17:18.781Z,94.32
2022-11-20T03:18:18.755Z,94.22
2022-11-20T03:19:19.045Z,94.22
2022-11-20T03:20:18.723Z,94.22
2022-11-20T03:21:18.712Z,94.26
2022-11-20T03:22:18.712Z,94.37
2022-11-20T03:23:18.680Z,94.47
2022-11-20T03:24:18.673Z,94.57
2022-11-20T03:25:18.652Z,94.78
2022-11-20T03:26:18.644Z,94.78
2022-11-20T03:27:18.642Z,94.78
2022-11-20T03:28:18.622Z,94.82
2022-11-20T03:29:18.899Z,94.93
2022-11-20T03:30:18.592Z,95.03
2022-11-20T03:31:18.581Z,95.35
2022-11-20T03:32:18.585Z,95.45
2022-11-20T03:33:18.549Z,95.56
2022-11-20T03:34:18.543Z,95.70
2022-11-20T03:35:18.523Z,95.66
2022-11-20T03:36:18.526Z,95.76
2022-11-20T03:37:18.512Z,96.01
2022-11-20T03:38:18.492Z,96.08
2022-11-20T03:39:18.630Z,96.08
2022-11-20T03:40:18.464Z,96.08
2022-11-20T03:41:18.447Z,95.97
2022-11-20T03:42:18.451Z,95.97
2022-11-20T03:43:18.412Z,96.08
2022-11-20T03:44:18.403Z,95.97
2022-11-20T03:45:18.394Z,95.97
2022-11-20T03:46:18.383Z,95.87
2022-11-20T03:47:18.373Z,95.87
2022-11-20T03:48:18.355Z,95.87
2022-11-20T03:49:18.473Z,95.97
2022-11-20T03:50:18.324Z,95.97
2022-11-20T03:51:18.312Z,95.97
2022-11-20T03:52:18.315Z,96.08
2022-11-20T03:53:18.283Z,96.18
2022-11-20T03:54:18.263Z,96.18
2022-11-20T03:55:18.262Z,96.18
2022-11-20T03:56:18.241Z,96.28
2022-11-20T03:57:18.253Z,96.28
2022-11-20T03:58:18.221Z,96.34
2022-11-20T03:59:18.296Z,96.45
2022-11-20T04:00:18.182Z,96.45
2022-11-20T04:01:18.239Z,96.45
2022-11-20T04:02:18.265Z,96.45
2022-11-20T04:03:18.195Z,96.45
2022-11-20T04:04:18.132Z,96.45
2022-11-20T04:05:18.123Z,96.45
2022-11-20T04:06:18.110Z,96.34
2022-11-20T04:07:18.220Z,96.24
2022-11-20T04:08:18.093Z,96.24
2022-11-20T04:09:18.223Z,96.14
2022-11-20T04:10:18.054Z,96.14
2022-11-20T04:11:18.053Z,96.14
2022-11-20T04:12:18.049Z,95.97
2022-11-20T04:13:18.040Z,95.87
2022-11-20T04:14:18.001Z,95.87
2022-11-20T04:15:17.992Z,95.87
2022-11-20T04:16:17.972Z,95.91
2022-11-20T04:17:17.996Z,95.97
2022-11-20T04:18:18.003Z,95.97
2022-11-20T04:19:18.051Z,95.91
2022-11-20T04:20:17.922Z,95.97
2022-11-20T04:21:17.912Z,96.01
2022-11-20T04:22:17.913Z,95.91
2022-11-20T04:23:17.891Z,95.91
2022-11-20T04:24:17.882Z,95.81
2022-11-20T04:25:17.862Z,95.85
2022-11-20T04:26:17.845Z,95.85
2022-11-20T04:27:17.855Z,95.85
2022-11-20T04:28:17.813Z,95.95
2022-11-20T04:29:17.947Z,96.06
2022-11-20T04:30:17.793Z,96.06
2022-11-20T04:31:17.800Z,96.06
2022-11-20T04:32:17.763Z,96.26
2022-11-20T04:33:17.846Z,96.22
2022-11-20T04:34:17.735Z,96.26
2022-11-20T04:35:17.744Z,96.16
2022-11-20T04:36:17.744Z,96.16
2022-11-20T04:37:17.705Z,96.22
2022-11-20T04:38:17.785Z,96.06
2022-11-20T04:39:17.672Z,95.95
2022-11-20T04:40:17.653Z,95.64
2022-11-20T04:41:17.664Z,95.43
2022-11-20T04:42:17.633Z,95.43
2022-11-20T04:43:17.698Z,95.43
2022-11-20T04:44:17.614Z,95.43
2022-11-20T04:45:17.597Z,95.43
2022-11-20T04:46:17.592Z,95.43
2022-11-20T04:47:17.573Z,95.43
2022-11-20T04:48:17.543Z,95.29
2022-11-20T04:49:17.584Z,95.23
2022-11-20T04:50:17.523Z,95.08
2022-11-20T04:51:17.531Z,95.02
2022-11-20T04:52:17.493Z,94.76
2022-11-20T04:53:17.584Z,94.81
2022-11-20T04:54:17.464Z,94.70
2022-11-20T04:55:17.471Z,94.70
2022-11-20T04:56:17.464Z,94.60
2022-11-20T04:57:17.433Z,94.49
2022-11-20T04:58:17.417Z,94.49
2022-11-20T04:59:17.414Z,94.49
2022-11-20T05:00:17.394Z,94.45
2022-11-20T05:01:17.419Z,94.49
2022-11-20T05:02:17.363Z,94.49
2022-11-20T05:03:17.355Z,94.60
2022-11-20T05:04:17.334Z,94.56
2022-11-20T05:05:17.325Z,94.56
2022-11-20T05:06:17.323Z,94.56
2022-11-20T05:07:17.347Z,94.45
2022-11-20T05:08:17.284Z,94.35
2022-11-20T05:09:17.272Z,94.35
2022-11-20T05:10:17.253Z,94.24
2022-11-20T05:11:17.267Z,94.08
2022-11-20T05:12:17.236Z,94.04
2022-11-20T05:13:17.224Z,94.14
2022-11-20T05:14:17.204Z,94.14
2022-11-20T05:15:17.196Z,94.24
2022-11-20T05:16:17.193Z,94.24
2022-11-20T05:17:17.165Z,94.24
2022-11-20T05:18:17.143Z,94.24
2022-11-20T05:19:17.285Z,94.24
2022-11-20T05:20:17.124Z,94.24
2022-11-20T05:21:17.123Z,94.24
2022-11-20T05:22:17.102Z,94.14
2022-11-20T05:23:17.093Z,94.14
2022-11-20T05:24:17.075Z,94.14
2022-11-20T05:25:17.054Z,94.14
2022-11-20T05:26:17.063Z,94.04
2022-11-20T05:27:17.044Z,94.04
2022-11-20T05:28:17.020Z,94.14
2022-11-20T05:29:17.010Z,94.18
2022-11-20T05:30:16.993Z,94.14
2022-11-20T05:31:20.676Z,94.14
2022-11-20T05:32:17.965Z,94.04
2022-11-20T05:33:16.954Z,94.04
2022-11-20T05:34:16.943Z,94.04
2022-11-20T05:35:16.923Z,93.93
2022-11-20T05:36:16.924Z,94.04
2022-11-20T05:37:16.904Z,93.93
2022-11-20T05:38:16.911Z,93.93
2022-11-20T05:39:16.873Z,93.93
2022-11-20T05:40:16.854Z,93.83
2022-11-20T05:41:16.844Z,93.62
2022-11-20T05:42:16.853Z,93.62
2022-11-20T05:43:16.824Z,93.52
2022-11-20T05:44:16.810Z,93.41
2022-11-20T05:45:16.817Z,93.41
2022-11-20T05:46:16.783Z,93.41
2022-11-20T05:47:16.795Z,93.27
2022-11-20T05:48:16.755Z,93.31
2022-11-20T05:49:16.741Z,93.16
2022-11-20T05:50:16.725Z,93.16
2022-11-20T05:51:16.735Z,93.05
2022-11-20T05:52:16.695Z,93.16
2022-11-20T05:53:16.682Z,93.16
2022-11-20T05:54:16.672Z,93.05
2022-11-20T05:55:16.663Z,93.05
2022-11-20T05:56:16.655Z,93.05
2022-11-20T05:57:16.633Z,92.91
2022-11-20T05:58:16.615Z,92.85
2022-11-20T05:59:16.605Z,92.64
2022-11-20T06:00:16.583Z,92.64
2022-11-20T06:01:16.593Z,92.54
2022-11-20T06:02:16.585Z,92.54
2022-11-20T06:03:16.553Z,92.64
2022-11-20T06:04:16.534Z,92.60
2022-11-20T06:05:16.525Z,92.70
2022-11-20T06:06:16.540Z,92.70
2022-11-20T06:07:16.530Z,92.80
2022-11-20T06:08:16.484Z,92.80
2022-11-20T06:09:16.475Z,92.91
2022-11-20T06:10:16.459Z,93.01
2022-11-20T06:11:16.463Z,93.12
2022-11-20T06:12:16.425Z,93.23
2022-11-20T06:13:16.424Z,93.23
2022-11-20T06:14:16.404Z,93.33
2022-11-20T06:15:16.402Z,93.33
2022-11-20T06:16:16.396Z,93.29
2022-11-20T06:17:16.363Z,93.33
2022-11-20T06:18:16.344Z,93.29
2022-11-20T06:19:16.340Z,93.23
2022-11-20T06:20:16.343Z,93.18
2022-11-20T06:21:16.314Z,93.23
2022-11-20T06:22:16.295Z,93.23
2022-11-20T06:23:16.294Z,93.18
2022-11-20T06:24:16.277Z,93.18
2022-11-20T06:25:16.283Z,93.18
2022-11-20T06:26:16.246Z,93.18
2022-11-20T06:27:16.235Z,93.18
2022-11-20T06:28:16.215Z,93.29
2022-11-20T06:29:16.211Z,93.29
2022-11-20T06:30:16.208Z,93.29
2022-11-20T06:31:16.184Z,93.29
2022-11-20T06:32:16.162Z,93.18
2022-11-20T06:33:16.156Z,93.18
2022-11-20T06:34:16.135Z,93.18
2022-11-20T06:35:16.184Z,93.18
2022-11-20T06:36:16.111Z,93.29
2022-11-20T06:37:16.104Z,93.29
2022-11-20T06:38:16.085Z,93.39
2022-11-20T06:39:16.081Z,93.39
2022-11-20T06:40:16.073Z,93.39
2022-11-20T06:41:16.051Z,93.39
2022-11-20T06:42:16.046Z,93.29
2022-11-20T06:43:16.024Z,93.29
2022-11-20T06:44:16.015Z,93.39
2022-11-20T06:45:16.015Z,93.29
2022-11-20T06:46:15.984Z,93.29
2022-11-20T06:47:15.975Z,93.18
2022-11-20T06:48:15.954Z,93.18
2022-11-20T06:49:15.943Z,93.24
2022-11-20T06:50:15.944Z,93.29
2022-11-20T06:51:15.915Z,93.29
2022-11-20T06:52:15.903Z,93.29
2022-11-20T06:53:15.895Z,93.39
2022-11-20T06:54:15.883Z,93.39
2022-11-20T06:55:15.885Z,93.49
2022-11-20T06:56:15.843Z,93.49
2022-11-20T06:57:15.835Z,93.39
2022-11-20T06:58:15.825Z,93.43
2022-11-20T06:59:15.826Z,93.43
2022-11-20T07:00:15.834Z,93.43
2022-11-20T07:01:15.886Z,93.54
2022-11-20T07:02:15.764Z,93.54
2022-11-20T07:03:15.754Z,93.68
2022-11-20T07:04:15.743Z,93.89
2022-11-20T07:05:15.754Z,94.10
2022-11-20T07:06:15.715Z,94.31
2022-11-20T07:07:15.722Z,94.51
2022-11-20T07:08:15.686Z,94.62
2022-11-20T07:09:15.675Z,94.62
2022-11-20T07:10:15.674Z,94.62
2022-11-20T07:11:15.689Z,94.72
2022-11-20T07:12:15.634Z,94.72
2022-11-20T07:13:15.625Z,94.72
2022-11-20T07:14:15.604Z,94.68
2022-11-20T07:15:15.614Z,94.78
2022-11-20T07:16:15.588Z,94.78
2022-11-20T07:17:15.575Z,94.78
2022-11-20T07:18:15.554Z,94.78
2022-11-20T07:19:15.864Z,94.89
2022-11-20T07:20:15.545Z,94.89
2022-11-20T07:21:15.514Z,94.89
2022-11-20T07:22:15.505Z,94.89
2022-11-20T07:23:15.494Z,94.78
2022-11-20T07:24:15.476Z,94.78
2022-11-20T07:25:15.493Z,94.78
2022-11-20T07:26:15.446Z,94.84
2022-11-20T07:27:15.444Z,94.78
2022-11-20T07:28:15.423Z,94.78
2022-11-20T07:29:15.415Z,94.78
2022-11-20T07:30:15.432Z,94.68
2022-11-20T07:31:19.043Z,94.68
2022-11-20T07:32:15.375Z,94.57
2022-11-20T07:33:15.361Z,94.57
2022-11-20T07:34:15.353Z,94.57
2022-11-20T07:35:15.358Z,94.57
2022-11-20T07:36:15.319Z,94.68
2022-11-20T07:37:15.313Z,94.68
2022-11-20T07:38:15.287Z,94.68
2022-11-20T07:39:15.285Z,94.68
2022-11-20T07:40:15.276Z,94.78
2022-11-20T07:41:15.255Z,94.78
2022-11-20T07:42:15.235Z,94.89
2022-11-20T07:43:15.229Z,94.89
2022-11-20T07:44:15.217Z,94.95
2022-11-20T07:45:15.222Z,95.05
2022-11-20T07:46:15.187Z,95.05
2022-11-20T07:47:15.175Z,95.15
2022-11-20T07:48:15.165Z,95.15
2022-11-20T07:49:15.145Z,95.15
2022-11-20T07:50:15.149Z,95.26
2022-11-20T07:51:15.118Z,95.21
2022-11-20T07:52:15.104Z,95.21
2022-11-20T07:53:15.094Z,95.21
2022-11-20T07:54:15.076Z,95.11
2022-11-20T07:55:15.084Z,95.01
2022-11-20T07:56:15.056Z,95.01
2022-11-20T07:57:15.043Z,94.90
2022-11-20T07:58:15.026Z,94.90
2022-11-20T07:59:15.034Z,94.80
2022-11-20T08:00:15.001Z,94.80
2022-11-20T08:01:15.021Z,94.65
2022-11-20T08:02:14.967Z,94.65
2022-11-20T08:03:15.770Z,94.65
2022-11-20T08:04:14.967Z,94.65
2022-11-20T08:05:14.935Z,94.55
2022-11-20T08:06:14.915Z,94.55
2022-11-20T08:07:14.958Z,94.55
2022-11-20T08:08:14.896Z,94.40
2022-11-20T08:09:14.895Z,94.30
2022-11-20T08:10:14.865Z,94.09
2022-11-20T08:11:14.865Z,93.88
2022-11-20T08:12:14.848Z,93.78
2022-11-20T08:13:14.825Z,93.68
2022-11-20T08:14:14.849Z,93.68
2022-11-20T08:15:14.794Z,93.57
2022-11-20T08:16:14.786Z,93.43
2022-11-20T08:17:14.768Z,93.32
2022-11-20T08:18:32.242Z,93.22
2022-11-20T08:19:15.766Z,93.12
2022-11-20T08:20:14.735Z,92.53
2022-11-20T08:21:14.723Z,92.43
2022-11-20T08:22:14.715Z,92.32
2022-11-20T08:23:14.696Z,92.36
2022-11-20T08:24:14.695Z,92.57
2022-11-20T08:25:14.666Z,92.68
2022-11-20T08:26:14.656Z,92.74
2022-11-20T08:27:14.647Z,92.84
2022-11-20T08:28:20.845Z,92.84
2022-11-20T08:29:15.626Z,93.01
2022-11-20T08:30:14.606Z,93.01
2022-11-20T08:31:14.597Z,93.01
2022-11-20T08:32:14.585Z,92.90
2022-11-20T08:33:14.567Z,92.80
2022-11-20T08:34:18.782Z,92.38
2022-11-20T08:35:14.538Z,92.07
2022-11-20T08:36:14.526Z,91.76
2022-11-20T08:37:14.514Z,91.76
2022-11-20T08:38:14.498Z,91.76
2022-11-20T08:39:14.497Z,91.76
2022-11-20T08:40:19.325Z,91.76
2022-11-20T08:41:15.457Z,91.91
2022-11-20T08:42:14.447Z,92.11
2022-11-20T08:43:14.426Z,92.11
2022-11-20T08:44:14.438Z,92.22
2022-11-20T08:45:14.406Z,92.22
2022-11-20T08:46:14.399Z,92.22
2022-11-20T08:47:14.378Z,92.18
2022-11-20T08:48:14.368Z,92.18
2022-11-20T08:49:14.367Z,92.18
2022-11-20T08:50:14.344Z,92.18
2022-11-20T08:51:14.329Z,92.07
2022-11-20T08:52:14.317Z,91.97
2022-11-20T08:53:14.298Z,91.93
2022-11-20T08:54:14.308Z,91.93
2022-11-20T08:55:14.277Z,91.93
2022-11-20T08:56:14.267Z,91.83
2022-11-20T08:57:14.246Z,91.72
2022-11-20T08:58:14.248Z,91.62
2022-11-20T08:59:27.392Z,91.62
2022-11-20T09:00:15.215Z,91.52
2022-11-20T09:01:14.234Z,91.62
2022-11-20T09:02:14.187Z,91.72
2022-11-20T09:04:24.079Z,91.89
2022-11-20T09:05:23.963Z,91.89
2022-11-20T09:06:23.955Z,91.99
2022-11-20T09:07:24.001Z,92.10
2022-11-20T09:08:23.937Z,92.20
2022-11-20T09:09:24.154Z,92.16
2022-11-20T09:10:24.835Z,92.16
2022-11-20T09:11:24.007Z,92.16
2022-11-20T09:12:23.874Z,91.64
2022-11-20T09:13:23.872Z,91.43
2022-11-20T09:14:23.844Z,90.91
2022-11-20T09:15:23.836Z,90.60
2022-11-20T09:16:23.822Z,90.60
2022-11-20T09:17:23.806Z,90.56
2022-11-20T09:18:23.815Z,90.66
2022-11-20T09:19:39.019Z,90.66
2022-11-20T09:20:24.766Z,90.56
2022-11-20T09:21:23.836Z,90.35
2022-11-20T09:22:23.743Z,90.04
2022-11-20T09:23:23.753Z,89.42
2022-11-20T09:24:23.714Z,88.48
2022-11-20T09:25:23.695Z,87.76
2022-11-20T09:26:23.693Z,87.76
2022-11-20T09:27:23.676Z,87.66
2022-11-20T09:28:23.664Z,87.62
2022-11-20T09:29:23.845Z,87.62
2022-11-20T09:30:23.636Z,87.72
2022-11-20T09:31:23.615Z,87.14
2022-11-20T09:32:23.614Z,86.68
2022-11-20T09:33:23.585Z,87.04
2022-11-20T09:34:23.604Z,86.99
2022-11-20T09:35:23.556Z,87.20
2022-11-20T09:36:23.554Z,87.41
2022-11-20T09:37:23.535Z,87.72
2022-11-20T09:38:23.536Z,87.78
2022-11-20T09:39:23.965Z,87.78
2022-11-20T09:40:23.507Z,88.09
2022-11-20T09:41:23.484Z,87.99
2022-11-20T09:42:23.465Z,87.99
2022-11-20T09:43:23.455Z,88.20
2022-11-20T09:44:23.472Z,88.09
2022-11-20T09:45:23.425Z,87.88
2022-11-20T09:46:23.416Z,87.06
2022-11-20T09:47:23.395Z,86.44
2022-11-20T09:48:23.388Z,86.44
2022-11-20T09:49:26.346Z,86.23
2022-11-20T09:50:24.364Z,86.02
2022-11-20T09:51:23.348Z,86.13
2022-11-20T09:52:23.326Z,86.23
2022-11-20T09:53:23.324Z,86.40
2022-11-20T09:54:23.326Z,85.68
2022-11-20T09:55:23.294Z,85.57
2022-11-20T09:56:23.278Z,85.88
2022-11-20T09:57:23.267Z,85.78
2022-11-20T09:58:23.275Z,85.47
2022-11-20T09:59:23.559Z,85.36
2022-11-20T10:00:23.215Z,85.57
2022-11-20T10:01:23.400Z,85.78
2022-11-20T10:02:23.196Z,85.92
2022-11-20T10:03:23.197Z,85.50
2022-11-20T10:04:23.168Z,85.50
2022-11-20T10:05:23.157Z,85.50
2022-11-20T10:06:23.144Z,85.71
2022-11-20T10:07:32.375Z,86.02
2022-11-20T10:08:24.173Z,86.19
2022-11-20T10:09:23.472Z,86.29
2022-11-20T10:10:23.091Z,86.50
2022-11-20T10:11:23.077Z,86.29
2022-11-20T10:12:23.062Z,85.99
2022-11-20T10:13:23.088Z,85.57
2022-11-20T10:14:23.040Z,85.57
2022-11-20T10:15:23.027Z,85.99
2022-11-20T10:16:23.007Z,86.09
2022-11-20T10:17:23.006Z,85.88
2022-11-20T10:18:22.978Z,85.88
2022-11-20T10:19:23.266Z,85.88
2022-11-20T10:20:22.951Z,85.68
2022-11-20T10:21:22.947Z,85.68
2022-11-20T10:22:22.927Z,85.99
2022-11-20T10:23:25.752Z,85.88
2022-11-20T10:24:22.919Z,85.61
2022-11-20T10:25:22.888Z,85.36
2022-11-20T10:26:22.867Z,85.61
2022-11-20T10:27:22.858Z,85.92
2022-11-20T10:28:22.847Z,86.09
2022-11-20T10:29:23.127Z,85.88
2022-11-20T10:30:22.817Z,85.99
2022-11-20T10:31:22.807Z,86.13
2022-11-20T10:32:22.788Z,85.99
2022-11-20T10:33:22.788Z,85.82
2022-11-20T10:34:23.432Z,85.30
2022-11-20T10:35:22.758Z,85.09
2022-11-20T10:36:22.738Z,85.40
2022-11-20T10:37:22.728Z,85.86
2022-11-20T10:38:22.716Z,85.55
2022-11-20T10:39:23.021Z,85.65
2022-11-20T10:40:22.688Z,85.86
2022-11-20T10:41:22.679Z,86.27
2022-11-20T10:42:22.660Z,86.37
2022-11-20T10:43:22.649Z,86.37
2022-11-20T10:44:22.912Z,86.58
2022-11-20T10:45:22.628Z,86.79
2022-11-20T10:46:22.610Z,86.89
2022-11-20T10:47:22.619Z,86.99
2022-11-20T10:48:22.579Z,87.16
2022-11-20T10:49:22.878Z,86.96
2022-11-20T10:50:22.969Z,86.96
2022-11-20T10:51:22.556Z,86.96
2022-11-20T10:52:22.520Z,87.16
2022-11-20T10:53:22.519Z,87.23
2022-11-20T10:54:22.520Z,87.12
2022-11-20T10:55:22.490Z,86.91
2022-11-20T10:56:22.481Z,86.81
2022-11-20T10:57:22.462Z,86.71
2022-11-20T10:58:22.457Z,86.40
2022-11-20T10:59:22.688Z,86.36
2022-11-20T11:00:22.432Z,86.46
2022-11-20T11:01:22.577Z,86.25
2022-11-20T11:02:22.392Z,86.25
2022-11-20T11:03:22.399Z,86.15
2022-11-20T11:04:22.360Z,85.94
2022-11-20T11:05:22.359Z,85.80
2022-11-20T11:06:22.340Z,85.80
2022-11-20T11:07:22.381Z,85.80
2022-11-20T11:08:22.330Z,85.49
2022-11-20T11:09:22.492Z,85.18
2022-11-20T11:10:22.280Z,85.39
2022-11-20T11:11:22.280Z,85.32
2022-11-20T11:12:22.261Z,85.42
2022-11-20T11:13:22.250Z,85.60
2022-11-20T11:14:22.251Z,85.80
2022-11-20T11:15:22.231Z,85.80
2022-11-20T11:16:22.210Z,85.70
2022-11-20T11:17:22.200Z,85.70
2022-11-20T11:18:22.180Z,85.80
2022-11-20T11:19:22.569Z,85.70
2022-11-20T11:20:22.153Z,85.60
2022-11-20T11:21:22.149Z,85.60
2022-11-20T11:22:22.120Z,85.60
2022-11-20T11:23:22.121Z,86.01
2022-11-20T11:24:40.915Z,85.28
2022-11-20T11:25:23.092Z,85.22
2022-11-20T11:26:22.073Z,85.02
2022-11-20T11:27:22.062Z,85.02
2022-11-20T11:28:22.043Z,85.02
2022-11-20T11:29:22.422Z,85.22
2022-11-20T11:30:22.031Z,85.32
2022-11-20T11:31:22.012Z,85.63
2022-11-20T11:32:21.997Z,85.74
2022-11-20T11:33:21.985Z,85.94
2022-11-20T11:34:21.992Z,86.05
2022-11-20T11:35:21.961Z,86.21
2022-11-20T11:36:21.932Z,86.01
2022-11-20T11:37:21.933Z,86.01
2022-11-20T11:38:21.919Z,85.91
2022-11-20T11:39:22.205Z,85.80
2022-11-20T11:40:24.413Z,85.70
2022-11-20T11:41:21.875Z,85.70
2022-11-20T11:42:21.861Z,85.39
2022-11-20T11:43:21.853Z,85.60
2022-11-20T11:44:21.842Z,86.01
2022-11-20T11:45:21.822Z,86.01
2022-11-20T11:46:21.814Z,85.80
2022-11-20T11:47:21.800Z,85.80
2022-11-20T11:48:21.783Z,85.49
2022-11-20T11:49:22.072Z,85.18
2022-11-20T11:50:21.753Z,85.39
2022-11-20T11:51:21.745Z,85.28
2022-11-20T11:52:21.723Z,85.39
2022-11-20T11:53:21.715Z,85.49
2022-11-20T11:54:21.723Z,85.39
2022-11-20T11:55:21.690Z,85.28
2022-11-20T11:56:21.673Z,85.08
2022-11-20T11:57:21.663Z,84.97
2022-11-20T11:58:21.656Z,84.97
2022-11-20T11:59:21.970Z,85.08
2022-11-20T12:00:21.613Z,85.35
2022-11-20T12:01:21.605Z,85.24
2022-11-20T12:02:21.626Z,85.14
2022-11-20T12:03:21.580Z,84.42
2022-11-20T12:04:21.586Z,84.31
2022-11-20T12:05:21.553Z,84.21
2022-11-20T12:06:21.533Z,84.11
2022-11-20T12:08:22.530Z,84.28
2022-11-20T12:09:21.755Z,84.17
2022-11-20T12:10:21.495Z,84.38
2022-11-20T12:11:21.473Z,84.07
2022-11-20T12:12:21.452Z,84.17
2022-11-20T12:13:21.445Z,84.28
2022-11-20T12:14:21.442Z,84.17
2022-11-20T12:15:21.413Z,84.07
2022-11-20T12:16:21.411Z,83.55
2022-11-20T12:17:21.394Z,83.65
2022-11-20T12:18:21.394Z,83.90
2022-11-20T12:19:21.730Z,84.11
2022-11-20T12:20:21.354Z,84.11
2022-11-20T12:21:21.334Z,83.70
2022-11-20T12:22:21.314Z,83.70
2022-11-20T12:23:21.313Z,83.70
2022-11-20T12:24:21.315Z,84.07
2022-11-20T12:25:21.274Z,84.07
2022-11-20T12:26:21.265Z,83.86
2022-11-20T12:27:21.258Z,83.97
2022-11-20T12:28:21.235Z,83.97
2022-11-20T12:29:21.428Z,84.28
2022-11-20T12:30:21.205Z,84.38
2022-11-20T12:31:21.203Z,83.97
2022-11-20T12:32:21.185Z,84.59
2022-11-20T12:33:21.175Z,84.89
2022-11-20T12:34:21.165Z,84.89
2022-11-20T12:35:21.155Z,85.00
2022-11-20T12:36:21.145Z,85.17
2022-11-20T12:37:21.125Z,84.96
2022-11-20T12:38:21.107Z,84.86
2022-11-20T12:39:21.250Z,84.86
2022-11-20T12:40:21.073Z,84.86
2022-11-20T12:41:21.066Z,84.34
2022-11-20T12:42:21.066Z,84.23
2022-11-20T12:43:21.054Z,83.93
2022-11-20T12:44:21.026Z,83.93
2022-11-20T12:45:21.017Z,84.44
2022-11-20T12:46:20.997Z,84.86
2022-11-20T12:47:21.004Z,84.86
2022-11-20T12:48:20.967Z,84.89
2022-11-20T12:49:21.261Z,84.79
2022-11-20T12:50:20.937Z,84.75
2022-11-20T12:51:21.050Z,84.38
2022-11-20T12:52:20.936Z,84.59
2022-11-20T12:53:20.906Z,85.00
2022-11-20T12:54:20.887Z,85.31